Time;durP1;ratioP1;P1;durP2;ratioP2;P2;SDS_P1;SDS_P2;PMS_P1;PMS_P2;Temp;Humidity;BMP_temperature;BMP_pressure;BME280_temperature;BME280_humidity;BME280_pressure;Samples;Min_cycle;Max_cycle;Signal;HPM_P1;HPM_P2
2022/03/17 00:00:11;;;;;;;6.03;5.43;;;7.40;87.60;;;;;;5012553;28;20185;-70
2022/03/17 00:02:38;;;;;;;5.60;5.03;;;7.40;86.90;;;;;;5009846;28;20199;-70
2022/03/17 00:05:09;;;;;;;5.70;5.00;;;7.50;86.60;;;;;;5010012;28;20641;-70
2022/03/17 00:07:39;;;;;;;9.33;4.93;;;7.50;86.40;;;;;;5015783;28;20180;-69
2022/03/17 00:10:06;;;;;;;4.63;4.13;;;7.50;86.20;;;;;;5012653;28;20177;-70
2022/03/17 00:12:33;;;;;;;8.57;5.20;;;7.60;86.30;;;;;;5011928;28;20188;-69
2022/03/17 00:14:59;;;;;;;6.53;4.70;;;7.50;86.90;;;;;;5011405;28;20180;-70
2022/03/17 00:17:26;;;;;;;6.13;5.17;;;7.60;86.40;;;;;;5012640;28;20238;-68
2022/03/17 00:19:52;;;;;;;5.70;5.17;;;7.60;86.50;;;;;;5013244;28;20226;-68
2022/03/17 00:22:19;;;;;;;5.57;4.90;;;7.60;86.90;;;;;;5011103;28;20180;-68
2022/03/17 00:24:46;;;;;;;6.40;5.10;;;7.50;87.00;;;;;;5019550;28;20196;-68
2022/03/17 00:27:12;;;;;;;12.37;5.43;;;7.50;87.30;;;;;;5015921;28;20181;-69
2022/03/17 00:29:39;;;;;;;6.50;5.10;;;7.50;87.40;;;;;;5015513;28;20361;-69
2022/03/17 00:32:06;;;;;;;5.73;4.87;;;7.50;86.90;;;;;;5014754;28;20188;-69
2022/03/17 00:34:33;;;;;;;5.60;4.50;;;7.60;86.50;;;;;;5014115;28;20187;-69
2022/03/17 00:36:59;;;;;;;5.40;4.57;;;7.60;86.40;;;;;;5017581;28;20220;-69
2022/03/17 00:39:25;;;;;;;8.07;5.50;;;7.70;86.30;;;;;;5016142;28;20346;-70
2022/03/17 00:41:52;;;;;;;8.03;5.90;;;7.70;86.10;;;;;;5016073;28;20188;-70
2022/03/17 00:44:17;;;;;;;7.53;5.27;;;7.70;86.50;;;;;;5018653;28;20188;-70
2022/03/17 00:46:43;;;;;;;6.20;5.60;;;7.70;86.20;;;;;;5009883;28;20185;-70
2022/03/17 00:49:11;;;;;;;5.33;4.90;;;7.70;86.00;;;;;;5018911;28;20208;-70
2022/03/17 00:51:37;;;;;;;5.97;5.13;;;7.80;85.90;;;;;;5013861;28;20177;-70
2022/03/17 00:54:03;;;;;;;6.97;5.17;;;7.80;85.90;;;;;;5008221;28;20196;-70
2022/03/17 00:56:29;;;;;;;6.43;4.63;;;7.80;85.70;;;;;;5013513;28;20217;-69
2022/03/17 00:58:54;;;;;;;5.63;5.13;;;7.80;85.80;;;;;;5010837;28;20188;-70
2022/03/17 01:01:20;;;;;;;6.30;4.97;;;7.80;85.90;;;;;;5014926;28;20614;-70
2022/03/17 01:03:46;;;;;;;6.03;4.83;;;7.80;86.00;;;;;;5016291;28;20903;-70
2022/03/17 01:06:12;;;;;;;7.03;4.53;;;7.80;86.40;;;;;;5018230;28;20281;-70
2022/03/17 01:08:39;;;;;;;5.67;4.80;;;7.80;86.10;;;;;;5013767;28;20668;-68
2022/03/17 01:11:05;;;;;;;7.60;5.20;;;7.70;86.20;;;;;;5010023;28;20837;-71
2022/03/17 01:13:32;;;;;;;6.73;5.57;;;7.70;86.30;;;;;;5011528;28;20731;-69
2022/03/17 01:15:57;;;;;;;6.37;5.77;;;7.70;86.30;;;;;;5013115;28;20217;-68
2022/03/17 01:18:24;;;;;;;6.27;5.07;;;7.60;86.40;;;;;;5016252;28;20199;-69
2022/03/17 01:20:50;;;;;;;6.97;5.17;;;7.60;86.30;;;;;;5014452;28;20191;-68
2022/03/17 01:23:17;;;;;;;5.40;4.87;;;7.50;86.40;;;;;;5011314;28;20184;-69
2022/03/17 01:25:43;;;;;;;4.47;3.70;;;7.50;85.80;;;;;;5014566;28;20185;-68
2022/03/17 01:28:08;;;;;;;3.97;3.67;;;7.40;85.60;;;;;;5011099;28;20189;-68
2022/03/17 01:30:35;;;;;;;3.83;3.60;;;7.40;85.50;;;;;;5011784;28;20188;-68
2022/03/17 01:33:01;;;;;;;3.97;3.63;;;7.30;85.70;;;;;;5013710;28;20181;-70
2022/03/17 01:35:27;;;;;;;3.17;2.93;;;7.30;85.40;;;;;;5018460;28;20295;-70
2022/03/17 01:37:53;;;;;;;3.00;2.83;;;7.20;85.60;;;;;;5010652;28;20288;-70
2022/03/17 01:40:18;;;;;;;3.10;2.90;;;7.20;85.30;;;;;;5010136;28;20188;-70
2022/03/17 01:42:44;;;;;;;4.43;3.20;;;7.20;85.60;;;;;;5013669;28;20347;-70
2022/03/17 01:45:10;;;;;;;3.50;3.20;;;7.20;85.60;;;;;;5005934;28;20209;-70
2022/03/17 01:47:37;;;;;;;3.50;3.17;;;7.20;85.90;;;;;;4999079;28;20181;-70
2022/03/17 01:50:10;;;;;;;3.63;3.30;;;7.10;85.60;;;;;;5012949;28;20239;-69
2022/03/17 01:52:36;;;;;;;4.33;3.47;;;7.10;85.60;;;;;;5017872;28;20248;-69
2022/03/17 01:55:03;;;;;;;3.57;3.30;;;7.10;85.40;;;;;;5007532;28;20573;-69
2022/03/17 01:57:29;;;;;;;4.57;3.57;;;7.00;86.00;;;;;;5012929;28;20219;-69
2022/03/17 01:59:55;;;;;;;3.33;3.03;;;7.00;85.90;;;;;;5013422;28;20181;-69
2022/03/17 02:02:21;;;;;;;3.37;3.10;;;6.90;86.20;;;;;;5009398;28;20180;-70
2022/03/17 02:04:48;;;;;;;4.77;3.50;;;6.80;87.10;;;;;;5010533;28;20268;-69
2022/03/17 02:07:14;;;;;;;3.43;3.23;;;6.70;87.50;;;;;;4975835;28;1154070;-69
2022/03/17 02:09:42;;;;;;;4.07;3.73;;;6.70;87.30;;;;;;5015344;28;20550;-69
2022/03/17 02:15:01;;;;;;;2.90;2.80;;;6.60;88.40;;;;;;5013316;28;20212;-69
2022/03/17 02:17:31;;;;;;;3.57;3.30;;;6.60;88.20;;;;;;5014135;28;20258;-69
2022/03/17 02:19:59;;;;;;;4.60;4.10;;;6.60;88.70;;;;;;5005839;28;20251;-69
2022/03/17 02:22:26;;;;;;;5.83;4.20;;;6.50;89.10;;;;;;4996939;28;20208;-69
2022/03/17 02:27:45;;;;;;;6.07;3.77;;;6.40;89.50;;;;;;5012350;28;20616;-69
2022/03/17 02:30:13;;;;;;;3.27;3.07;;;6.40;88.80;;;;;;5012001;28;20267;-68
2022/03/17 02:32:39;;;;;;;2.90;2.67;;;6.40;88.80;;;;;;5018798;28;20268;-69
2022/03/17 02:35:08;;;;;;;3.37;3.20;;;6.40;88.60;;;;;;5012498;28;20256;-69
2022/03/17 02:37:34;;;;;;;4.60;2.47;;;6.50;88.30;;;;;;5014682;28;20180;-69
2022/03/17 02:40:04;;;;;;;3.60;3.30;;;6.50;88.50;;;;;;5012510;28;20608;-69
2022/03/17 02:42:30;;;;;;;2.80;2.70;;;6.60;88.30;;;;;;5027085;28;20690;-69
2022/03/17 02:45:00;;;;;;;3.10;2.90;;;6.60;88.40;;;;;;5009873;28;20763;-69
2022/03/17 02:47:27;;;;;;;2.73;2.53;;;6.60;88.10;;;;;;5013932;28;20195;-69
2022/03/17 02:49:55;;;;;;;3.30;2.47;;;6.60;88.10;;;;;;5013141;28;20173;-69
2022/03/17 02:52:25;;;;;;;2.13;2.03;;;6.70;87.70;;;;;;5012562;28;20181;-70
2022/03/17 02:54:52;;;;;;;2.17;1.97;;;6.70;87.50;;;;;;5010800;28;20581;-70
2022/03/17 02:57:18;;;;;;;2.53;2.13;;;6.70;87.20;;;;;;5008143;28;20338;-69
2022/03/17 02:59:44;;;;;;;2.00;1.90;;;6.70;86.90;;;;;;5007997;28;20266;-70
2022/03/17 03:02:10;;;;;;;1.60;1.50;;;6.70;86.90;;;;;;5008943;28;20184;-69
2022/03/17 03:04:36;;;;;;;2.43;1.97;;;6.80;86.70;;;;;;5008408;28;20181;-69
2022/03/17 03:07:02;;;;;;;1.30;1.30;;;6.70;86.70;;;;;;5009610;28;20200;-69
2022/03/17 03:09:31;;;;;;;2.00;2.00;;;6.70;86.80;;;;;;5011366;28;20211;-69
2022/03/17 03:11:57;;;;;;;1.40;1.30;;;6.70;86.50;;;;;;5007432;28;20173;-69
2022/03/17 03:14:23;;;;;;;1.67;1.57;;;6.70;86.70;;;;;;5010846;28;20559;-69
2022/03/17 03:16:49;;;;;;;1.80;1.70;;;6.70;86.60;;;;;;5007692;28;20209;-69
2022/03/17 03:19:15;;;;;;;2.03;1.93;;;6.70;86.60;;;;;;5012343;28;20204;-69
2022/03/17 03:21:43;;;;;;;1.57;1.53;;;6.70;86.60;;;;;;5020447;28;20220;-70
2022/03/17 03:24:10;;;;;;;1.60;1.50;;;6.60;86.50;;;;;;5016429;28;20683;-69
2022/03/17 03:26:36;;;;;;;1.27;1.27;;;6.70;86.30;;;;;;5005247;28;20827;-69
2022/03/17 03:29:05;;;;;;;1.83;1.83;;;6.70;86.30;;;;;;5012128;28;20188;-68
2022/03/17 03:31:31;;;;;;;2.10;2.00;;;6.70;86.30;;;;;;5010716;28;20196;-69
2022/03/17 03:33:57;;;;;;;2.30;2.10;;;6.60;86.20;;;;;;5006816;28;20694;-68
2022/03/17 03:39:06;;;;;;;1.87;1.80;;;6.50;85.70;;;;;;5007943;28;20677;-69
2022/03/17 03:41:32;;;;;;;2.70;2.50;;;6.50;85.40;;;;;;5010045;28;20188;-69
2022/03/17 03:43:58;;;;;;;2.60;2.50;;;6.50;85.20;;;;;;5006586;28;20188;-68
2022/03/17 03:46:24;;;;;;;2.53;2.43;;;6.50;85.10;;;;;;5015094;28;20311;-69
2022/03/17 03:48:50;;;;;;;2.57;2.37;;;6.40;84.90;;;;;;5013123;28;20176;-69
2022/03/17 03:51:15;;;;;;;2.43;2.30;;;6.40;84.70;;;;;;5007840;28;20219;-69
2022/03/17 03:56:44;;;;;;;2.73;2.60;;;6.30;84.70;;;;;;4992389;28;20283;-70
2022/03/17 03:59:20;;;;;;;2.60;2.50;;;6.30;84.80;;;;;;4994191;28;20283;-69
2022/03/17 04:01:50;;;;;;;3.00;2.77;;;6.20;85.10;;;;;;4968554;28;20233;-69
2022/03/17 04:04:20;;;;;;;3.00;2.63;;;6.30;85.00;;;;;;4989652;28;20190;-69
2022/03/17 04:06:53;;;;;;;3.10;2.90;;;6.20;84.90;;;;;;4990906;28;20212;-68
2022/03/17 04:09:21;;;;;;;3.37;3.10;;;6.20;85.20;;;;;;4992093;28;20296;-69
2022/03/17 04:11:47;;;;;;;2.83;2.73;;;6.10;85.30;;;;;;4992634;28;20185;-69
2022/03/17 04:14:14;;;;;;;3.37;3.17;;;6.10;85.20;;;;;;4990806;28;20724;-69
2022/03/17 04:16:40;;;;;;;3.27;3.07;;;6.10;85.00;;;;;;4993789;28;20582;-69
2022/03/17 04:19:06;;;;;;;3.40;3.10;;;6.10;85.20;;;;;;4995403;28;20286;-69
2022/03/17 04:21:32;;;;;;;3.07;2.60;;;6.10;85.10;;;;;;4994385;28;20189;-69
2022/03/17 04:23:59;;;;;;;2.67;2.53;;;6.00;85.30;;;;;;4992150;28;20177;-69
2022/03/17 04:26:26;;;;;;;3.07;2.97;;;6.00;85.20;;;;;;4990323;28;20195;-69
2022/03/17 04:28:52;;;;;;;3.57;3.27;;;6.00;85.00;;;;;;4992345;28;20197;-69
2022/03/17 04:31:18;;;;;;;2.87;2.77;;;6.00;85.30;;;;;;4994156;28;20665;-68
2022/03/17 04:33:44;;;;;;;4.20;3.80;;;5.90;85.20;;;;;;5010154;28;20725;-68
2022/03/17 04:36:12;;;;;;;3.67;3.43;;;5.90;85.60;;;;;;5015266;28;20267;-68
2022/03/17 04:38:38;;;;;;;3.93;3.63;;;5.80;85.30;;;;;;5013537;28;20285;-68
2022/03/17 04:41:04;;;;;;;3.57;3.37;;;5.80;85.70;;;;;;5012811;28;20723;-68
2022/03/17 04:43:30;;;;;;;3.80;3.50;;;5.80;85.70;;;;;;5013158;28;20184;-69
2022/03/17 04:45:56;;;;;;;3.77;3.47;;;5.70;85.90;;;;;;5004190;28;20204;-68
2022/03/17 04:48:22;;;;;;;2.87;2.67;;;5.70;85.90;;;;;;5009428;28;20188;-68
2022/03/17 04:50:47;;;;;;;4.40;3.17;;;5.70;86.00;;;;;;5007169;28;20188;-69
2022/03/17 04:53:30;;;;;;;4.00;3.60;;;5.70;86.00;;;;;;5010525;28;20180;-68
2022/03/17 04:55:59;;;;;;;2.80;2.60;;;5.70;86.10;;;;;;5008833;28;20296;-69
2022/03/17 04:58:26;;;;;;;3.80;3.13;;;5.70;86.20;;;;;;5007632;28;20173;-69
2022/03/17 05:00:53;;;;;;;3.80;3.50;;;5.70;86.20;;;;;;5012485;28;20270;-68
2022/03/17 05:03:19;;;;;;;2.73;2.63;;;5.70;86.20;;;;;;5013276;28;20298;-68
2022/03/17 05:05:46;;;;;;;3.03;2.77;;;5.60;86.10;;;;;;5011861;28;20897;-68
2022/03/17 05:08:11;;;;;;;3.83;3.53;;;5.60;86.50;;;;;;5010987;28;20231;-70
2022/03/17 05:10:37;;;;;;;3.60;3.30;;;5.60;86.50;;;;;;5015627;28;20180;-69
2022/03/17 05:13:07;;;;;;;3.30;2.97;;;5.60;86.30;;;;;;5012520;28;20185;-69
2022/03/17 05:15:34;;;;;;;2.73;2.63;;;5.60;86.10;;;;;;5014370;28;20256;-69
2022/03/17 05:18:00;;;;;;;2.90;2.73;;;5.60;86.20;;;;;;5015587;28;20240;-68
2022/03/17 05:20:26;;;;;;;2.97;2.77;;;5.50;86.00;;;;;;5015571;28;20212;-69
2022/03/17 05:22:52;;;;;;;3.80;3.13;;;5.50;86.10;;;;;;5009471;28;20207;-68
2022/03/17 05:25:19;;;;;;;2.90;2.70;;;5.50;86.10;;;;;;5010717;28;20208;-67
2022/03/17 05:27:45;;;;;;;2.77;2.63;;;5.50;86.00;;;;;;5013986;28;20195;-67
2022/03/17 05:30:13;;;;;;;2.63;2.40;;;5.50;85.80;;;;;;5012028;28;20209;-67
2022/03/17 05:32:40;;;;;;;2.77;2.57;;;5.50;85.80;;;;;;5009957;28;20227;-68
2022/03/17 05:35:07;;;;;;;2.53;2.40;;;5.50;86.10;;;;;;5017587;28;20276;-68
2022/03/17 05:37:34;;;;;;;2.30;2.20;;;5.40;86.00;;;;;;5014375;28;20199;-70
2022/03/17 05:40:02;;;;;;;2.17;2.07;;;5.30;86.30;;;;;;5012505;28;20184;-68
2022/03/17 05:42:28;;;;;;;2.53;2.33;;;5.30;86.10;;;;;;5013552;28;20177;-69
2022/03/17 05:44:54;;;;;;;2.13;2.03;;;5.20;86.60;;;;;;5009809;28;20268;-68
2022/03/17 05:47:20;;;;;;;2.37;2.20;;;5.20;86.60;;;;;;5016035;28;20192;-68
2022/03/17 05:49:47;;;;;;;2.53;2.43;;;5.20;86.60;;;;;;5010995;28;20219;-68
2022/03/17 05:52:13;;;;;;;3.70;2.73;;;5.10;86.80;;;;;;5014213;28;20177;-68
2022/03/17 05:54:39;;;;;;;2.47;2.37;;;5.10;86.70;;;;;;5014906;28;20181;-69
2022/03/17 05:57:05;;;;;;;2.70;2.47;;;5.10;86.90;;;;;;5013544;28;20219;-69
2022/03/17 05:59:31;;;;;;;2.57;2.37;;;5.10;86.90;;;;;;5018045;28;20200;-69
2022/03/17 06:01:57;;;;;;;3.90;2.70;;;5.10;87.00;;;;;;5010585;28;20177;-70
2022/03/17 06:04:22;;;;;;;1.73;1.63;;;5.20;87.30;;;;;;5042823;28;20223;-67
2022/03/17 06:06:48;;;;;;;2.67;2.47;;;5.20;87.60;;;;;;5014751;28;20669;-70
2022/03/17 06:09:14;;;;;;;1.97;1.87;;;5.20;87.40;;;;;;5009086;28;20263;-70
2022/03/17 06:11:41;;;;;;;2.00;1.90;;;5.20;87.10;;;;;;5011825;28;20336;-70
2022/03/17 06:14:07;;;;;;;2.27;2.17;;;5.20;87.20;;;;;;5016523;28;20181;-73
2022/03/17 06:16:34;;;;;;;2.53;2.33;;;5.30;87.20;;;;;;5015769;28;20220;-69
2022/03/17 06:18:59;;;;;;;1.77;1.67;;;5.30;87.20;;;;;;5008865;28;20181;-70
2022/03/17 06:21:25;;;;;;;1.40;1.30;;;5.20;87.10;;;;;;5010562;28;20756;-71
2022/03/17 06:23:51;;;;;;;3.47;2.20;;;5.20;86.90;;;;;;5009688;28;20212;-72
2022/03/17 06:26:16;;;;;;;1.47;1.47;;;5.20;87.30;;;;;;5013836;28;20196;-72
2022/03/17 06:28:42;;;;;;;1.87;1.77;;;5.20;87.20;;;;;;5012438;28;20215;-69
2022/03/17 06:31:08;;;;;;;1.87;1.87;;;5.20;87.30;;;;;;5008601;28;20661;-70
2022/03/17 06:33:33;;;;;;;1.50;1.40;;;5.20;87.30;;;;;;5009473;28;20189;-73
2022/03/17 06:35:59;;;;;;;1.80;1.70;;;5.20;87.10;;;;;;5006075;28;20797;-72
2022/03/17 06:38:25;;;;;;;1.43;1.33;;;5.20;87.00;;;;;;5014917;28;20177;-71
2022/03/17 06:40:51;;;;;;;1.80;1.70;;;5.20;87.00;;;;;;5017931;28;20177;-71
2022/03/17 06:43:17;;;;;;;1.57;1.47;;;5.20;87.10;;;;;;5015295;28;20183;-71
2022/03/17 06:45:44;;;;;;;1.53;1.43;;;5.30;86.80;;;;;;5013632;28;20185;-70
2022/03/17 06:48:10;;;;;;;1.33;1.30;;;5.20;87.20;;;;;;5015618;28;20181;-71
2022/03/17 06:50:36;;;;;;;1.90;1.80;;;5.20;87.10;;;;;;5016799;28;20219;-69
2022/03/17 06:53:02;;;;;;;2.03;1.67;;;5.20;87.70;;;;;;5011369;28;20173;-69
2022/03/17 06:55:28;;;;;;;1.70;1.63;;;5.20;87.40;;;;;;5009430;28;20180;-70
2022/03/17 06:57:54;;;;;;;1.50;1.40;;;5.20;87.70;;;;;;5014661;28;20183;-70
2022/03/17 07:00:20;;;;;;;1.50;1.40;;;5.30;87.40;;;;;;5015419;28;20177;-70
2022/03/17 07:02:46;;;;;;;1.60;1.60;;;5.30;87.70;;;;;;5014106;28;20854;-70
2022/03/17 07:05:12;;;;;;;1.87;1.80;;;5.20;87.20;;;;;;5020670;28;20204;-69
2022/03/17 07:07:38;;;;;;;1.43;1.43;;;5.20;87.40;;;;;;5018203;28;20402;-69
2022/03/17 07:10:06;;;;;;;1.60;1.60;;;5.20;87.50;;;;;;5012067;28;20300;-70
2022/03/17 07:12:33;;;;;;;1.70;1.60;;;5.20;87.80;;;;;;5011258;28;20594;-70
2022/03/17 07:14:58;;;;;;;1.73;1.63;;;5.20;88.10;;;;;;5014803;28;20176;-69
2022/03/17 07:17:24;;;;;;;1.87;1.77;;;5.20;88.40;;;;;;5019379;28;20630;-69
2022/03/17 07:22:25;;;;;;;2.03;1.93;;;5.20;88.20;;;;;;5016220;28;20698;-70
2022/03/17 07:24:53;;;;;;;2.00;1.90;;;5.10;88.40;;;;;;5011173;28;20180;-70
2022/03/17 07:27:21;;;;;;;2.10;1.97;;;5.10;88.30;;;;;;5008731;28;20659;-69
2022/03/17 07:29:47;;;;;;;2.40;2.17;;;5.10;88.50;;;;;;5010376;28;20321;-70
2022/03/17 07:32:13;;;;;;;2.83;1.80;;;5.20;88.50;;;;;;5012940;28;20187;-69
2022/03/17 07:34:39;;;;;;;2.70;2.00;;;5.20;88.30;;;;;;5009437;28;20196;-70
2022/03/17 07:37:04;;;;;;;2.27;2.17;;;5.20;88.40;;;;;;5011475;28;21037;-70
2022/03/17 07:39:30;;;;;;;2.37;2.17;;;5.20;88.10;;;;;;5016486;28;20261;-70
2022/03/17 07:41:56;;;;;;;2.33;2.23;;;5.20;88.40;;;;;;5013300;28;20570;-71
2022/03/17 07:44:21;;;;;;;2.43;2.20;;;5.20;88.20;;;;;;5014986;28;20180;-70
2022/03/17 07:46:48;;;;;;;2.27;2.17;;;5.20;88.50;;;;;;5017570;28;20546;-70
2022/03/17 07:49:14;;;;;;;2.40;2.30;;;5.30;88.30;;;;;;5018509;28;20176;-69
2022/03/17 07:51:40;;;;;;;2.47;2.37;;;5.30;88.20;;;;;;5006839;28;20204;-71
2022/03/17 07:54:07;;;;;;;5.60;2.60;;;5.40;88.20;;;;;;5010693;28;20871;-69
2022/03/17 07:56:33;;;;;;;3.47;2.73;;;5.50;88.00;;;;;;5010109;28;20227;-69
2022/03/17 07:59:00;;;;;;;2.70;2.33;;;5.50;87.90;;;;;;5014932;28;20742;-69
2022/03/17 08:01:26;;;;;;;2.57;2.40;;;5.50;87.80;;;;;;5008686;28;20223;-69
2022/03/17 08:03:55;;;;;;;3.70;3.00;;;5.50;88.20;;;;;;5011453;28;20184;-69
2022/03/17 08:06:23;;;;;;;2.80;2.60;;;5.50;88.10;;;;;;5020363;28;20204;-70
2022/03/17 08:08:49;;;;;;;3.87;3.50;;;5.60;88.00;;;;;;5014077;28;20180;-69
2022/03/17 08:11:15;;;;;;;3.20;3.00;;;5.70;88.00;;;;;;5014516;28;20187;-69
2022/03/17 08:13:41;;;;;;;3.13;2.97;;;5.80;87.20;;;;;;5010329;28;20173;-70
2022/03/17 08:16:06;;;;;;;4.27;3.47;;;5.70;86.80;;;;;;5011788;28;20296;-69
2022/03/17 08:18:34;;;;;;;5.50;3.13;;;5.70;87.00;;;;;;5011574;28;20203;-71
2022/03/17 08:21:00;;;;;;;3.03;2.90;;;5.70;86.80;;;;;;5016542;28;20176;-70
2022/03/17 08:23:26;;;;;;;3.17;2.93;;;5.60;87.00;;;;;;5008865;28;20677;-70
2022/03/17 08:25:52;;;;;;;4.80;3.27;;;5.60;87.10;;;;;;5014986;28;20185;-70
2022/03/17 08:28:18;;;;;;;3.80;3.23;;;5.50;87.20;;;;;;5011935;28;20199;-70
2022/03/17 08:30:50;;;;;;;3.07;2.87;;;5.50;88.00;;;;;;5010074;28;20180;-70
2022/03/17 08:33:18;;;;;;;3.50;3.20;;;5.50;87.90;;;;;;5009640;28;20187;-70
2022/03/17 08:35:44;;;;;;;2.83;2.70;;;5.60;88.10;;;;;;5011678;28;20196;-71
2022/03/17 08:38:10;;;;;;;3.30;3.10;;;5.70;88.00;;;;;;5012876;28;20177;-70
2022/03/17 08:40:40;;;;;;;6.60;3.63;;;5.70;87.70;;;;;;5015723;28;20483;-70
2022/03/17 08:43:07;;;;;;;3.63;3.33;;;5.80;87.80;;;;;;5015789;28;20188;-70
2022/03/17 08:51:03;;;;;;;3.50;3.30;;;6.00;87.40;;;;;;5021188;28;20295;-70
2022/03/17 08:53:28;;;;;;;3.33;3.17;;;6.00;87.20;;;;;;5020063;28;20317;-70
2022/03/17 08:55:54;;;;;;;4.43;4.03;;;6.00;87.00;;;;;;5014602;28;20200;-70
2022/03/17 08:58:20;;;;;;;4.70;3.77;;;6.10;87.00;;;;;;5012320;28;20173;-72
2022/03/17 09:00:45;;;;;;;4.70;4.23;;;6.10;86.90;;;;;;5016185;28;20177;-70
2022/03/17 09:03:11;;;;;;;4.20;4.00;;;6.10;86.70;;;;;;5018177;28;20184;-70
2022/03/17 09:05:37;;;;;;;4.40;4.00;;;6.10;86.50;;;;;;5018110;28;20274;-71
2022/03/17 09:08:06;;;;;;;3.83;3.53;;;6.10;87.00;;;;;;5013405;28;20563;-71
2022/03/17 09:10:34;;;;;;;3.70;3.50;;;6.10;87.20;;;;;;5015143;28;20196;-72
2022/03/17 09:13:07;;;;;;;4.57;3.97;;;6.10;87.50;;;;;;5014646;28;20181;-71
2022/03/17 09:15:34;;;;;;;4.10;3.80;;;6.20;87.50;;;;;;5023014;28;20180;-70
2022/03/17 09:17:59;;;;;;;4.67;4.27;;;6.30;87.40;;;;;;5009687;28;20187;-71
2022/03/17 09:20:25;;;;;;;4.40;4.10;;;6.40;87.30;;;;;;5013673;28;20181;-71
2022/03/17 09:22:52;;;;;;;6.03;4.10;;;6.40;87.30;;;;;;5013904;28;20272;-71
2022/03/17 09:25:23;;;;;;;4.80;4.27;;;6.50;87.10;;;;;;5016323;28;20650;-71
2022/03/17 09:27:50;;;;;;;4.23;3.87;;;6.60;87.00;;;;;;5006326;28;20172;-70
2022/03/17 09:30:15;;;;;;;4.23;3.97;;;6.70;86.90;;;;;;5009788;28;20192;-70
2022/03/17 09:32:41;;;;;;;4.10;3.70;;;6.80;86.70;;;;;;5017085;28;20172;-71
2022/03/17 09:35:07;;;;;;;4.20;4.00;;;6.80;85.90;;;;;;5007491;28;20185;-70
2022/03/17 09:37:33;;;;;;;4.10;3.53;;;6.80;85.50;;;;;;5018973;28;20622;-70
2022/03/17 09:39:59;;;;;;;4.13;3.83;;;6.80;85.30;;;;;;5007796;28;20177;-70
2022/03/17 09:42:25;;;;;;;4.07;3.77;;;6.80;85.80;;;;;;5013999;28;20192;-70
2022/03/17 09:44:53;;;;;;;3.83;3.53;;;6.80;85.70;;;;;;5017617;28;20650;-70
2022/03/17 09:47:20;;;;;;;2.63;2.53;;;6.80;85.30;;;;;;5015871;28;20188;-70
2022/03/17 09:49:49;;;;;;;3.23;3.03;;;6.90;84.90;;;;;;5012220;28;20208;-70
2022/03/17 09:52:20;;;;;;;3.30;3.10;;;6.90;84.40;;;;;;5018903;28;20180;-70
2022/03/17 09:54:47;;;;;;;4.30;4.00;;;6.90;83.90;;;;;;5014455;28;20181;-70
2022/03/17 09:57:16;;;;;;;3.03;2.93;;;6.90;83.60;;;;;;5017124;28;20215;-70
2022/03/17 09:59:57;;;;;;;4.17;3.33;;;6.80;84.00;;;;;;5012003;28;20177;-70
2022/03/17 10:02:23;;;;;;;4.37;3.33;;;6.80;84.20;;;;;;5014497;28;20168;-70
2022/03/17 10:04:49;;;;;;;3.33;3.23;;;6.80;84.30;;;;;;5014492;28;20209;-70
2022/03/17 10:07:20;;;;;;;3.60;3.23;;;6.90;84.20;;;;;;5012765;28;20189;-70
2022/03/17 10:09:47;;;;;;;3.37;3.17;;;6.90;83.90;;;;;;5015007;28;20173;-70
2022/03/17 10:12:14;;;;;;;3.60;3.40;;;7.00;83.60;;;;;;5018321;28;20180;-71
2022/03/17 10:14:42;;;;;;;3.83;3.53;;;7.10;83.40;;;;;;5017832;28;20180;-70
2022/03/17 10:17:38;;;;;;;3.27;3.00;;;7.10;83.10;;;;;;5009614;28;20307;-70
2022/03/17 10:20:18;;;;;;;2.97;2.70;;;7.10;82.80;;;;;;5025313;28;20191;-70
2022/03/17 10:22:52;;;;;;;3.33;3.13;;;7.10;82.20;;;;;;5041703;28;20633;-70
2022/03/17 10:25:20;;;;;;;3.50;2.83;;;7.10;82.20;;;;;;5040389;28;20285;-70
2022/03/17 10:27:49;;;;;;;2.73;2.63;;;7.00;82.50;;;;;;5036901;28;20223;-70
2022/03/17 10:30:21;;;;;;;3.00;2.80;;;7.00;82.70;;;;;;5037837;28;20180;-71
2022/03/17 10:33:01;;;;;;;2.83;2.47;;;7.00;82.50;;;;;;5036672;28;20290;-70
2022/03/17 10:35:33;;;;;;;2.97;2.63;;;6.90;82.00;;;;;;5033017;28;20214;-70
2022/03/17 10:38:11;;;;;;;2.50;2.40;;;7.00;82.00;;;;;;5038092;28;20217;-70
2022/03/17 10:40:37;;;;;;;3.03;2.83;;;7.00;81.70;;;;;;5036435;28;20263;-70
2022/03/17 10:43:22;;;;;;;2.37;2.27;;;7.00;81.70;;;;;;5036718;28;20875;-70
2022/03/17 10:46:06;;;;;;;2.57;2.37;;;7.00;81.20;;;;;;5035195;28;20778;-70
2022/03/17 10:48:32;;;;;;;2.97;2.67;;;7.00;81.20;;;;;;5039929;28;20736;-70
2022/03/17 10:50:58;;;;;;;2.33;2.23;;;7.00;81.50;;;;;;5038883;28;20192;-70
2022/03/17 10:53:29;;;;;;;1.90;1.90;;;7.00;81.60;;;;;;5038019;28;20194;-70
2022/03/17 10:56:10;;;;;;;2.53;2.43;;;7.00;81.50;;;;;;5037383;28;20647;-69
2022/03/17 10:58:43;;;;;;;1.77;1.67;;;7.00;81.00;;;;;;5012777;28;20184;-71
2022/03/17 11:01:09;;;;;;;2.87;2.70;;;7.00;81.10;;;;;;5007562;28;20658;-71
2022/03/17 11:03:36;;;;;;;2.30;2.20;;;7.00;81.10;;;;;;5011005;28;20186;-71
2022/03/17 11:06:06;;;;;;;2.60;2.40;;;7.00;81.00;;;;;;5001798;28;20203;-69
2022/03/17 11:08:32;;;;;;;2.70;2.50;;;7.00;80.90;;;;;;5007329;28;20192;-71
2022/03/17 11:10:58;;;;;;;2.57;2.40;;;7.00;81.20;;;;;;5006189;28;20180;-70
2022/03/17 11:13:26;;;;;;;3.07;2.87;;;7.00;81.30;;;;;;5012285;28;20181;-70
2022/03/17 11:16:00;;;;;;;2.47;2.37;;;7.00;81.60;;;;;;5010327;28;20207;-70
2022/03/17 11:18:31;;;;;;;3.43;3.13;;;7.00;81.50;;;;;;5014065;28;20187;-71
2022/03/17 11:21:13;;;;;;;3.10;2.90;;;6.90;81.60;;;;;;5011510;28;20686;-71
2022/03/17 11:24:17;;;;;;;3.30;3.00;;;6.80;81.70;;;;;;5004713;28;20224;-70
2022/03/17 11:26:44;;;;;;;3.37;3.10;;;6.70;82.20;;;;;;5010341;28;20662;-70
2022/03/17 11:29:17;;;;;;;3.67;3.40;;;6.60;82.90;;;;;;5006787;28;20201;-71
2022/03/17 11:31:56;;;;;;;4.17;3.77;;;6.50;82.10;;;;;;5013639;28;20750;-70
2022/03/17 11:34:46;;;;;;;7.43;5.70;;;6.50;82.70;;;;;;5012431;28;20278;-71
2022/03/17 11:37:28;;;;;;;5.30;4.90;;;6.40;84.10;;;;;;5006995;28;20217;-71
2022/03/17 11:40:10;;;;;;;5.17;4.67;;;6.30;84.50;;;;;;5010885;28;20184;-71
2022/03/17 11:42:47;;;;;;;7.00;4.83;;;6.10;84.70;;;;;;5005624;28;20651;-70
2022/03/17 11:45:13;;;;;;;5.57;4.97;;;5.90;85.60;;;;;;4992867;28;20262;-70
2022/03/17 11:47:53;;;;;;;5.83;4.40;;;5.80;86.50;;;;;;5004963;28;20189;-69
2022/03/17 11:50:36;;;;;;;7.23;4.70;;;5.70;86.90;;;;;;5005471;28;20745;-69
2022/03/17 11:53:06;;;;;;;4.83;4.47;;;5.70;86.80;;;;;;5006504;28;20235;-69
2022/03/17 11:55:35;;;;;;;4.10;3.70;;;5.70;87.80;;;;;;4994718;28;20228;-70
2022/03/17 11:58:19;;;;;;;4.40;4.10;;;5.60;87.50;;;;;;5007094;28;20196;-70
2022/03/17 12:00:47;;;;;;;6.60;4.30;;;5.60;87.40;;;;;;5010125;28;20220;-70
2022/03/17 12:03:13;;;;;;;4.93;4.47;;;5.50;87.60;;;;;;5014239;28;20196;-70
2022/03/17 12:05:42;;;;;;;3.97;3.67;;;5.50;87.20;;;;;;5008466;28;20192;-72
2022/03/17 12:08:15;;;;;;;4.50;3.60;;;5.50;87.70;;;;;;5012000;28;20679;-70
2022/03/17 12:11:03;;;;;;;2.60;2.50;;;5.50;88.00;;;;;;5013111;28;20185;-70
2022/03/17 12:13:28;;;;;;;3.13;2.93;;;5.50;87.60;;;;;;5010656;28;20223;-69
2022/03/17 12:15:57;;;;;;;2.53;2.43;;;5.50;87.80;;;;;;5013285;28;20204;-71
2022/03/17 12:18:23;;;;;;;3.27;3.07;;;5.50;88.10;;;;;;5009902;28;20190;-70
2022/03/17 12:20:52;;;;;;;2.03;1.93;;;5.50;88.20;;;;;;5014882;28;20180;-72
2022/03/17 12:23:57;;;;;;;2.50;2.40;;;5.50;87.60;;;;;;5019410;28;20224;-71
2022/03/17 12:26:22;;;;;;;2.43;2.23;;;5.60;87.20;;;;;;4974389;28;20321;-70
2022/03/17 12:28:48;;;;;;;1.70;1.70;;;5.70;87.20;;;;;;4973483;28;20199;-70
2022/03/17 12:31:14;;;;;;;2.33;2.13;;;5.90;86.80;;;;;;4960236;28;21291;-69
2022/03/17 12:33:44;;;;;;;2.13;2.13;;;5.90;86.20;;;;;;4978087;28;20735;-69
2022/03/17 12:36:14;;;;;;;2.40;2.20;;;6.00;85.40;;;;;;4974457;28;20221;-70
2022/03/17 12:38:40;;;;;;;2.60;2.37;;;6.00;84.80;;;;;;4969842;28;20590;-69
2022/03/17 12:41:13;;;;;;;2.80;2.60;;;5.90;85.00;;;;;;4975584;28;20190;-70
2022/03/17 12:43:38;;;;;;;3.03;2.83;;;5.90;85.20;;;;;;4975263;28;21244;-70
2022/03/17 12:46:04;;;;;;;4.40;2.10;;;5.90;85.10;;;;;;4956628;28;20182;-70
2022/03/17 12:48:31;;;;;;;2.10;2.00;;;5.80;84.70;;;;;;4975443;28;20359;-71
2022/03/17 12:51:05;;;;;;;2.60;2.40;;;5.80;84.80;;;;;;4955126;28;20205;-70
2022/03/17 12:53:31;;;;;;;2.50;2.30;;;5.80;84.60;;;;;;4979137;28;20200;-71
2022/03/17 12:55:57;;;;;;;2.50;2.30;;;5.90;85.10;;;;;;4979111;28;20232;-70
2022/03/17 12:58:24;;;;;;;2.83;2.63;;;6.00;85.20;;;;;;5012993;28;20184;-70
2022/03/17 13:00:50;;;;;;;1.70;1.60;;;6.00;84.30;;;;;;5009370;28;20184;-70
2022/03/17 13:03:17;;;;;;;2.10;2.00;;;6.10;84.60;;;;;;5014774;28;20191;-70
2022/03/17 13:08:37;;;;;;;3.33;2.20;;;6.00;83.90;;;;;;5011786;28;20194;-70
2022/03/17 13:16:41;;;;;;;2.57;2.37;;;5.80;84.70;;;;;;5015060;28;20676;-70
2022/03/17 13:19:08;;;;;;;2.63;2.43;;;5.90;85.70;;;;;;5016805;28;20235;-69
2022/03/17 13:21:34;;;;;;;3.30;2.97;;;5.90;85.70;;;;;;5014079;28;20211;-69
2022/03/17 13:24:15;;;;;;;2.87;2.70;;;5.80;84.50;;;;;;5016938;28;20276;-71
2022/03/17 13:26:42;;;;;;;2.63;2.53;;;5.70;84.10;;;;;;5013597;28;20216;-70
2022/03/17 13:29:12;;;;;;;2.67;2.47;;;5.70;85.00;;;;;;5018905;28;20180;-70